Sunset Beach, California
Current Conditions -  °F | °C
As of 7:58 PM on Sunday 19 Oct 2014 (Local Time) from KSLI Reporting Station
Clear Clear  
Wind Chill: 68°   Ceiling: Unl
Heat Index: 68°   Visibility: 10mi
Dew Point: 63°   Wind: 7mph
Humidity: 82%   Direction: 280°W
Pressure: 29.87"   Gusts: NA
Location:  33.72°N, 118.07°W
Report Text: KSLI 200258Z AUTO 28006KT 10SM CLR 20/17 A2987 RMK AO2 SLP118 T02010170 53012
Loading
Personal Weather Stations






























Interactive Weather Map
Tropical Storm Tracking
New forecast layout! Learn more

10-Day Weather Forecast

Advertisements
Track Severe Weather on mobile